createdAt,value
2023-03-20T00:00:38.720Z,8.61
2023-03-20T00:03:25.077Z,8.83
2023-03-20T00:06:17.368Z,8.59
2023-03-20T00:09:07.422Z,8.46
2023-03-20T00:11:56.020Z,8.62
2023-03-20T00:14:42.523Z,8.59
2023-03-20T00:17:28.984Z,8.69
2023-03-20T00:20:18.914Z,8.69
2023-03-20T00:23:06.302Z,8.60
2023-03-20T00:25:53.132Z,8.62
2023-03-20T00:28:42.739Z,8.73
2023-03-20T00:31:31.892Z,8.71
2023-03-20T00:34:20.535Z,8.42
2023-03-20T00:37:06.662Z,8.53
2023-03-20T00:39:54.061Z,8.45
2023-03-20T00:42:40.773Z,8.65
2023-03-20T00:45:28.347Z,8.47
2023-03-20T00:48:16.621Z,8.47
2023-03-20T00:51:02.936Z,8.57
2023-03-20T00:53:51.566Z,8.55
2023-03-20T00:56:43.958Z,8.61
2023-03-20T00:59:34.519Z,8.63
2023-03-20T01:02:22.226Z,8.54
2023-03-20T01:05:08.967Z,8.40
2023-03-20T01:07:55.710Z,8.58
2023-03-20T01:10:42.346Z,8.57
2023-03-20T01:13:32.063Z,8.35
2023-03-20T01:16:22.660Z,8.40
2023-03-20T01:19:13.190Z,8.39
2023-03-20T01:21:59.456Z,8.55
2023-03-20T01:24:46.188Z,8.28
2023-03-20T01:27:32.336Z,8.30
2023-03-20T01:30:23.324Z,8.32
2023-03-20T01:33:15.712Z,8.29
2023-03-20T01:36:03.256Z,8.35
2023-03-20T01:38:56.165Z,8.33
2023-03-20T01:41:43.776Z,8.23
2023-03-20T01:44:32.127Z,8.26
2023-03-20T01:47:22.216Z,8.37
2023-03-20T01:50:27.934Z,8.37
2023-03-20T01:53:23.072Z,8.31
2023-03-20T01:56:16.571Z,8.08
2023-03-20T01:59:12.996Z,7.96
2023-03-20T02:02:00.244Z,7.83
2023-03-20T02:04:53.369Z,7.66
2023-03-20T02:07:40.554Z,7.82
2023-03-20T02:10:29.379Z,7.75
2023-03-20T02:13:27.257Z,7.78
2023-03-20T02:16:15.496Z,7.77
2023-03-20T02:19:29.207Z,7.89
2023-03-20T02:22:46.218Z,7.86
2023-03-20T02:26:01.668Z,7.72
2023-03-20T02:29:19.018Z,7.55
2023-03-20T02:32:33.937Z,7.39
2023-03-20T02:35:42.888Z,7.57
2023-03-20T02:38:58.233Z,7.59
2023-03-20T02:41:52.808Z,7.73
2023-03-20T02:44:44.817Z,7.59
2023-03-20T02:47:36.930Z,7.52
2023-03-20T02:50:38.517Z,7.48
2023-03-20T02:53:35.974Z,7.43
2023-03-20T02:56:32.523Z,7.46
2023-03-20T02:59:29.605Z,7.43
2023-03-20T03:02:19.692Z,7.45
2023-03-20T03:05:12.623Z,7.28
2023-03-20T03:08:03.270Z,7.27
2023-03-20T03:10:56.554Z,7.20
2023-03-20T03:13:49.811Z,7.02
2023-03-20T03:16:38.942Z,7.03
2023-03-20T03:19:27.929Z,6.99
2023-03-20T03:22:14.288Z,6.97
2023-03-20T03:25:00.366Z,6.95
2023-03-20T03:27:50.236Z,7.05
2023-03-20T03:30:40.810Z,6.98
2023-03-20T03:33:30.783Z,7.01
2023-03-20T03:36:25.444Z,7.10
2023-03-20T03:39:22.295Z,6.83
2023-03-20T03:42:15.761Z,6.76
2023-03-20T03:45:09.546Z,6.70
2023-03-20T03:48:01.138Z,6.75
2023-03-20T03:50:52.630Z,6.85
2023-03-20T03:53:44.111Z,6.72
2023-03-20T03:56:33.800Z,6.95
2023-03-20T03:59:24.122Z,6.70
2023-03-20T04:02:11.835Z,6.79
2023-03-20T04:05:03.039Z,6.92
2023-03-20T04:07:54.971Z,6.90
2023-03-20T04:10:41.133Z,6.60
2023-03-20T04:13:28.216Z,6.72
2023-03-20T04:16:15.197Z,6.81
2023-03-20T04:19:03.531Z,6.73
2023-03-20T04:21:51.217Z,6.70
2023-03-20T04:24:37.611Z,6.74
2023-03-20T04:27:24.263Z,6.77
2023-03-20T04:30:12.850Z,6.84
2023-03-20T04:33:17.635Z,6.92
2023-03-20T04:36:23.182Z,6.86
2023-03-20T04:39:13.310Z,6.84
2023-03-20T04:41:59.778Z,6.84
2023-03-20T04:44:47.166Z,6.69
2023-03-20T04:47:33.768Z,6.80
2023-03-20T04:50:21.124Z,6.83
2023-03-20T04:53:09.450Z,6.82
2023-03-20T04:55:57.299Z,6.77
2023-03-20T04:58:43.903Z,6.78
2023-03-20T05:01:30.733Z,6.80
2023-03-20T05:04:17.103Z,6.83
2023-03-20T05:07:03.863Z,6.78
2023-03-20T05:09:58.953Z,6.82
2023-03-20T05:12:47.984Z,6.87
2023-03-20T05:15:43.981Z,6.88
2023-03-20T05:18:42.038Z,6.68
2023-03-20T05:21:44.571Z,6.78
2023-03-20T05:24:45.253Z,6.77
2023-03-20T05:27:47.101Z,6.79
2023-03-20T05:30:54.258Z,6.87
2023-03-20T05:33:55.820Z,6.78
2023-03-20T05:36:56.232Z,6.76
2023-03-20T05:40:03.194Z,6.64
2023-03-20T05:43:05.680Z,6.65
2023-03-20T05:46:00.374Z,6.75
2023-03-20T05:49:09.618Z,6.73
2023-03-20T05:52:31.433Z,6.77
2023-03-20T05:55:31.331Z,6.82
2023-03-20T05:58:49.480Z,6.80
2023-03-20T06:02:04.001Z,6.91
2023-03-20T06:04:54.061Z,6.88
2023-03-20T06:07:46.621Z,6.97
2023-03-20T06:10:34.593Z,6.93
2023-03-20T06:13:21.302Z,6.99
2023-03-20T06:16:10.172Z,7.01
2023-03-20T06:18:58.242Z,6.72
2023-03-20T06:21:46.428Z,7.01
2023-03-20T06:24:47.403Z,6.83
2023-03-20T06:27:34.113Z,6.95
2023-03-20T06:30:21.007Z,7.08
2023-03-20T06:33:10.382Z,7.00
2023-03-20T06:36:10.533Z,6.97
2023-03-20T06:38:57.568Z,6.92
2023-03-20T06:41:45.780Z,6.96
2023-03-20T06:44:32.402Z,6.85
2023-03-20T06:47:32.158Z,7.04
2023-03-20T06:50:22.993Z,7.09
2023-03-20T06:53:09.827Z,7.00
2023-03-20T06:56:25.642Z,7.17
2023-03-20T06:59:12.054Z,7.21
2023-03-20T07:01:58.594Z,7.28
2023-03-20T07:04:46.713Z,7.21
2023-03-20T07:07:34.692Z,7.36
2023-03-20T07:10:21.359Z,7.19
2023-03-20T07:13:12.174Z,7.24
2023-03-20T07:16:05.155Z,7.38
2023-03-20T07:18:56.884Z,7.24
2023-03-20T07:21:43.061Z,7.45
2023-03-20T07:24:32.011Z,7.28
2023-03-20T07:27:18.910Z,7.16
2023-03-20T07:30:07.123Z,7.26
2023-03-20T07:32:53.598Z,7.25
2023-03-20T07:35:41.526Z,7.23
2023-03-20T07:38:28.356Z,7.42
2023-03-20T07:41:26.377Z,7.55
2023-03-20T07:44:21.896Z,7.38
2023-03-20T07:47:11.996Z,7.33
2023-03-20T07:49:58.599Z,7.51
2023-03-20T07:52:47.671Z,7.50
2023-03-20T07:55:33.709Z,7.67
2023-03-20T07:58:21.713Z,7.69
2023-03-20T08:01:08.247Z,7.65
2023-03-20T08:03:54.416Z,7.82
2023-03-20T08:06:40.752Z,7.96
2023-03-20T08:09:27.466Z,7.75
2023-03-20T08:12:13.709Z,7.83
2023-03-20T08:15:01.421Z,7.99
2023-03-20T08:17:48.475Z,7.96
2023-03-20T08:20:34.814Z,8.12
2023-03-20T08:23:21.178Z,8.08
2023-03-20T08:26:08.713Z,8.17
2023-03-20T08:28:55.173Z,8.17
2023-03-20T08:31:43.488Z,8.03
2023-03-20T08:34:29.927Z,8.12
2023-03-20T08:37:16.113Z,7.99
2023-03-20T08:40:02.844Z,8.03
2023-03-20T08:42:49.116Z,7.86
2023-03-20T08:45:35.703Z,7.80
2023-03-20T08:48:24.048Z,7.72
2023-03-20T08:51:10.595Z,7.80
2023-03-20T08:53:57.267Z,7.92
2023-03-20T08:56:43.705Z,7.93
2023-03-20T08:59:31.313Z,7.87
2023-03-20T09:02:17.515Z,7.65
2023-03-20T09:05:05.496Z,7.79
2023-03-20T09:07:52.324Z,7.89
2023-03-20T09:10:40.629Z,7.88
2023-03-20T09:13:28.049Z,7.82
2023-03-20T09:16:15.153Z,7.91
2023-03-20T09:19:01.877Z,7.90
2023-03-20T09:21:49.751Z,7.85
2023-03-20T09:24:36.291Z,7.94
2023-03-20T09:27:22.676Z,8.06
2023-03-20T09:30:10.776Z,8.09
2023-03-20T09:32:56.961Z,8.15
2023-03-20T09:35:43.891Z,8.21
2023-03-20T09:38:31.981Z,8.22
2023-03-20T09:41:22.603Z,8.48
2023-03-20T09:44:15.579Z,8.54
2023-03-20T09:47:19.729Z,8.38
2023-03-20T09:50:22.058Z,8.54
2023-03-20T09:53:12.634Z,8.58
2023-03-20T09:56:01.599Z,8.48
2023-03-20T09:58:55.455Z,8.36
2023-03-20T10:01:48.737Z,8.56
2023-03-20T10:04:37.168Z,8.63
2023-03-20T10:07:24.169Z,8.48
2023-03-20T10:10:11.540Z,8.61
2023-03-20T10:13:09.908Z,8.57
2023-03-20T10:16:03.931Z,8.54
2023-03-20T10:18:57.250Z,8.47
2023-03-20T10:21:45.709Z,8.52
2023-03-20T10:24:37.005Z,8.50
2023-03-20T10:27:28.056Z,8.66
2023-03-20T10:30:26.460Z,8.48
2023-03-20T10:33:27.508Z,8.84
2023-03-20T10:36:34.117Z,8.75
2023-03-20T10:39:31.589Z,8.62
2023-03-20T10:42:22.807Z,8.71
2023-03-20T10:45:20.600Z,9.21
2023-03-20T10:48:17.234Z,9.06
2023-03-20T10:51:04.337Z,9.19
2023-03-20T10:53:53.793Z,9.04
2023-03-20T10:56:45.027Z,9.07
2023-03-20T10:59:37.649Z,9.40
2023-03-20T11:02:27.374Z,9.42
2023-03-20T11:05:23.591Z,9.22
2023-03-20T11:08:14.144Z,8.89
2023-03-20T11:11:03.037Z,8.94
2023-03-20T11:13:49.349Z,9.08
2023-03-20T11:16:36.782Z,9.11
2023-03-20T11:19:25.765Z,9.30
2023-03-20T11:22:26.757Z,9.12
2023-03-20T11:25:26.354Z,9.40
2023-03-20T11:28:27.772Z,9.49
2023-03-20T11:31:19.921Z,9.40
2023-03-20T11:34:22.737Z,9.02
2023-03-20T11:37:24.775Z,9.24
2023-03-20T11:40:17.426Z,9.51
2023-03-20T11:43:07.383Z,9.69
2023-03-20T11:45:57.431Z,9.72
2023-03-20T11:48:46.466Z,9.55
2023-03-20T11:51:35.178Z,9.96
2023-03-20T11:54:25.818Z,9.37
2023-03-20T11:57:29.068Z,9.45
2023-03-20T12:00:21.341Z,9.63
2023-03-20T12:03:42.806Z,9.68
2023-03-20T12:06:42.330Z,9.66
2023-03-20T12:09:38.755Z,9.65
2023-03-20T12:12:34.247Z,9.85
2023-03-20T12:15:26.059Z,9.61
2023-03-20T12:18:18.562Z,9.48
2023-03-20T12:21:10.464Z,9.58
2023-03-20T12:24:04.388Z,9.86
2023-03-20T12:27:00.810Z,9.70
2023-03-20T12:29:53.157Z,9.41
2023-03-20T12:32:48.703Z,9.35
2023-03-20T12:35:41.142Z,9.33
2023-03-20T12:38:35.317Z,9.36
2023-03-20T12:41:27.807Z,9.54
2023-03-20T12:44:29.185Z,9.29
2023-03-20T12:47:36.986Z,9.28
2023-03-20T12:50:33.801Z,9.41
2023-03-20T12:53:41.033Z,9.36
2023-03-20T12:57:02.768Z,9.19
2023-03-20T13:00:05.978Z,9.30
2023-03-20T13:03:06.558Z,9.31
2023-03-20T13:06:00.203Z,9.30
2023-03-20T13:09:16.342Z,9.29
2023-03-20T13:12:10.014Z,9.40
2023-03-20T13:15:14.505Z,9.29
2023-03-20T13:18:08.326Z,9.19
2023-03-20T13:20:57.468Z,9.21
2023-03-20T13:23:53.203Z,9.28
2023-03-20T13:26:47.110Z,9.24
2023-03-20T13:29:42.096Z,9.47
2023-03-20T13:32:42.085Z,9.17
2023-03-20T13:35:43.959Z,9.27
2023-03-20T13:38:38.317Z,8.98
2023-03-20T13:41:26.159Z,8.87
2023-03-20T13:44:15.258Z,8.88
2023-03-20T13:47:05.165Z,8.82
2023-03-20T13:49:59.895Z,8.98
2023-03-20T13:52:50.578Z,8.99
2023-03-20T13:55:47.030Z,8.88
2023-03-20T13:58:46.032Z,8.80
2023-03-20T14:01:47.316Z,8.84
2023-03-20T14:04:35.731Z,8.90
2023-03-20T14:07:36.484Z,8.92
2023-03-20T14:10:36.616Z,8.87
2023-03-20T14:13:24.305Z,8.86
2023-03-20T14:16:16.662Z,8.95
2023-03-20T14:19:07.633Z,8.90
2023-03-20T14:21:56.510Z,8.97
2023-03-20T14:24:51.067Z,8.72
2023-03-20T14:27:54.833Z,9.00
2023-03-20T14:30:44.353Z,9.00
2023-03-20T14:33:32.373Z,9.17
2023-03-20T14:36:21.809Z,9.13
2023-03-20T14:39:19.504Z,8.94
2023-03-20T14:42:24.832Z,8.72
2023-03-20T14:45:31.044Z,8.79
2023-03-20T14:48:30.003Z,8.93
2023-03-20T14:51:28.530Z,8.75
2023-03-20T14:54:29.766Z,8.85
2023-03-20T14:57:30.269Z,8.84
2023-03-20T15:00:23.039Z,8.67
2023-03-20T15:03:12.194Z,8.81
2023-03-20T15:06:02.508Z,8.87
2023-03-20T15:08:52.587Z,9.03
2023-03-20T15:11:39.299Z,9.02
2023-03-20T15:14:30.602Z,8.64
2023-03-20T15:17:20.820Z,8.71
2023-03-20T15:20:17.924Z,8.79
2023-03-20T15:23:05.010Z,8.75
2023-03-20T15:25:52.007Z,8.74
2023-03-20T15:28:39.404Z,8.80
2023-03-20T15:31:30.730Z,8.99
2023-03-20T15:34:22.013Z,8.98
2023-03-20T15:37:16.104Z,8.91
2023-03-20T15:40:12.881Z,8.92
2023-03-20T15:43:00.267Z,8.99
2023-03-20T15:45:48.384Z,8.99
2023-03-20T15:48:36.182Z,9.12
2023-03-20T15:51:27.658Z,9.16
2023-03-20T15:54:17.092Z,9.08
2023-03-20T15:57:05.284Z,9.04
2023-03-20T15:59:52.059Z,9.12
2023-03-20T16:02:38.859Z,9.13
2023-03-20T16:05:30.565Z,9.17
2023-03-20T16:08:24.142Z,8.99
2023-03-20T16:11:37.117Z,9.11
2023-03-20T16:14:26.126Z,9.30
2023-03-20T16:17:18.494Z,9.29
2023-03-20T16:20:06.073Z,9.36
2023-03-20T16:23:01.043Z,9.37
2023-03-20T16:25:47.538Z,9.32
2023-03-20T16:28:37.827Z,9.33
2023-03-20T16:31:28.323Z,9.25
2023-03-20T16:34:19.825Z,9.42
2023-03-20T16:37:10.270Z,9.41
2023-03-20T16:40:12.808Z,9.45
2023-03-20T16:43:06.509Z,9.43
2023-03-20T16:45:56.380Z,9.37
2023-03-20T16:48:45.448Z,9.48
2023-03-20T16:51:32.867Z,9.21
2023-03-20T16:54:21.605Z,9.25
2023-03-20T16:57:17.660Z,9.38
2023-03-20T17:00:08.313Z,9.41
2023-03-20T17:03:08.983Z,9.55
2023-03-20T17:05:57.820Z,9.45
2023-03-20T17:08:49.482Z,9.56
2023-03-20T17:11:41.508Z,9.33
2023-03-20T17:14:29.838Z,9.32
2023-03-20T17:17:19.661Z,9.45
2023-03-20T17:20:07.204Z,9.43
2023-03-20T17:23:19.148Z,9.36
2023-03-20T17:26:06.654Z,9.41
2023-03-20T17:28:53.227Z,9.32
2023-03-20T17:31:41.207Z,9.62
2023-03-20T17:34:27.553Z,9.48
2023-03-20T17:37:16.340Z,9.50
2023-03-20T17:40:03.400Z,9.50
2023-03-20T17:42:49.763Z,9.48
2023-03-20T17:45:36.227Z,9.51
2023-03-20T17:48:24.082Z,9.49
2023-03-20T17:51:10.952Z,9.51
2023-03-20T17:53:57.893Z,9.50
2023-03-20T17:56:44.066Z,9.50
2023-03-20T17:59:31.340Z,9.60
2023-03-20T18:02:19.137Z,9.61
2023-03-20T18:05:08.394Z,9.62
2023-03-20T18:07:54.780Z,9.57
2023-03-20T18:10:41.911Z,9.57
2023-03-20T18:13:29.191Z,9.80
2023-03-20T18:16:18.392Z,9.69
2023-03-20T18:19:05.312Z,9.81
2023-03-20T18:21:53.235Z,9.79
2023-03-20T18:24:52.091Z,9.69
2023-03-20T18:27:40.291Z,9.71
2023-03-20T18:30:31.225Z,9.77
2023-03-20T18:33:18.145Z,9.89
2023-03-20T18:36:05.471Z,9.78
2023-03-20T18:38:53.502Z,9.73
2023-03-20T18:41:39.787Z,9.57
2023-03-20T18:44:26.460Z,9.68
2023-03-20T18:47:12.984Z,9.63
2023-03-20T18:49:59.303Z,9.66
2023-03-20T18:52:46.697Z,9.72
2023-03-20T18:55:36.010Z,9.75
2023-03-20T18:58:24.969Z,9.85
2023-03-20T19:01:12.826Z,9.80
2023-03-20T19:03:59.359Z,9.77
2023-03-20T19:06:46.215Z,9.81
2023-03-20T19:09:34.700Z,9.93
2023-03-20T19:12:24.733Z,9.78
2023-03-20T19:15:11.830Z,9.92
2023-03-20T19:17:58.566Z,9.96
2023-03-20T19:20:48.059Z,9.85
2023-03-20T19:23:34.825Z,9.97
2023-03-20T19:26:24.372Z,10.04
2023-03-20T19:29:14.013Z,9.79
2023-03-20T19:32:00.677Z,9.96
2023-03-20T19:35:35.163Z,9.90
2023-03-20T19:37:53.790Z,9.77
2023-03-20T19:40:43.320Z,9.96
2023-03-20T19:43:30.394Z,10.00
2023-03-20T19:46:36.141Z,9.96
2023-03-20T19:49:30.637Z,10.03
2023-03-20T19:52:28.455Z,9.91
2023-03-20T19:55:15.298Z,10.00
2023-03-20T19:58:02.005Z,10.07
2023-03-20T20:01:12.225Z,10.04
2023-03-20T20:03:59.043Z,10.06
2023-03-20T20:06:48.649Z,10.01
2023-03-20T20:09:35.571Z,9.95
2023-03-20T20:12:22.124Z,9.92
2023-03-20T20:15:10.767Z,9.93
2023-03-20T20:17:57.299Z,9.99
2023-03-20T20:21:31.988Z,10.01
2023-03-20T20:23:53.145Z,10.02
2023-03-20T20:26:49.390Z,10.02
2023-03-20T20:29:39.555Z,10.12
2023-03-20T20:32:28.163Z,10.22
2023-03-20T20:35:56.046Z,10.16
2023-03-20T20:38:48.327Z,9.89
2023-03-20T20:41:30.163Z,10.04
2023-03-20T20:44:17.576Z,10.03
2023-03-20T20:47:04.850Z,9.91
2023-03-20T20:49:51.097Z,10.10
2023-03-20T20:52:39.732Z,10.12
2023-03-20T20:55:29.822Z,9.95
2023-03-20T20:58:16.256Z,10.01
2023-03-20T21:01:03.120Z,10.05
2023-03-20T21:03:49.797Z,9.99
2023-03-20T21:07:06.319Z,9.98
2023-03-20T21:09:43.313Z,10.12
2023-03-20T21:12:40.162Z,9.93
2023-03-20T21:15:29.349Z,10.14
2023-03-20T21:18:16.417Z,10.08
2023-03-20T21:21:07.209Z,10.02
2023-03-20T21:23:55.395Z,10.05
2023-03-20T21:26:42.010Z,10.01
2023-03-20T21:29:30.588Z,9.93
2023-03-20T21:32:20.557Z,9.89
2023-03-20T21:35:09.237Z,10.10
2023-03-20T21:41:10.148Z,10.06
2023-03-20T21:43:56.648Z,9.98
2023-03-20T21:50:37.012Z,10.03
2023-03-20T21:56:48.529Z,9.99
2023-03-20T22:02:23.444Z,10.05
2023-03-20T22:09:18.533Z,10.07
2023-03-20T22:15:22.896Z,10.05
2023-03-20T22:24:43.598Z,9.88
2023-03-20T22:27:46.551Z,9.88
2023-03-20T22:46:03.309Z,9.98
2023-03-20T22:48:53.520Z,9.98
2023-03-20T22:51:52.090Z,9.85
2023-03-20T22:54:46.037Z,9.95
2023-03-20T22:57:42.456Z,9.81
2023-03-20T23:00:34.533Z,9.98
2023-03-20T23:03:37.596Z,9.92
2023-03-20T23:06:28.348Z,9.89
2023-03-20T23:09:16.613Z,10.02
2023-03-20T23:12:03.143Z,9.90
2023-03-20T23:14:49.452Z,9.98
2023-03-20T23:17:35.898Z,9.98
2023-03-20T23:20:22.370Z,10.01
2023-03-20T23:23:10.135Z,9.99
2023-03-20T23:26:03.539Z,9.83
2023-03-20T23:28:53.125Z,9.93
2023-03-20T23:31:39.590Z,9.82
2023-03-20T23:34:25.962Z,9.77
2023-03-20T23:37:12.177Z,9.75
2023-03-20T23:39:59.649Z,9.80
2023-03-20T23:42:45.981Z,9.89
2023-03-20T23:45:32.096Z,9.72
2023-03-20T23:48:18.935Z,9.81
2023-03-20T23:51:06.631Z,9.87
2023-03-20T23:53:52.883Z,9.82
2023-03-20T23:56:40.725Z,9.76
2023-03-20T23:59:27.220Z,9.82
